sensor_id;sensor_type;location;lat;lon;timestamp;pressure;altitude;pressure_sealevel;temperature
69590;BMP180;56792;50.644;17.984;2024-01-30T00:00:06;101292.00;;;2.50
69590;BMP180;56792;50.644;17.984;2024-01-30T00:02:39;101290.40;;;2.50
69590;BMP180;56792;50.644;17.984;2024-01-30T00:05:10;101289.00;;;2.50
69590;BMP180;56792;50.644;17.984;2024-01-30T00:07:41;101286.00;;;2.50
69590;BMP180;56792;50.644;17.984;2024-01-30T00:10:13;101290.40;;;2.50
69590;BMP180;56792;50.644;17.984;2024-01-30T00:12:44;101293.60;;;2.50
69590;BMP180;56792;50.644;17.984;2024-01-30T00:15:15;101293.00;;;2.50
69590;BMP180;56792;50.644;17.984;2024-01-30T00:17:46;101286.80;;;2.50
69590;BMP180;56792;50.644;17.984;2024-01-30T00:20:17;101286.60;;;2.50
69590;BMP180;56792;50.644;17.984;2024-01-30T00:22:48;101284.40;;;2.50
69590;BMP180;56792;50.644;17.984;2024-01-30T00:25:20;101287.40;;;2.50
69590;BMP180;56792;50.644;17.984;2024-01-30T00:27:51;101283.00;;;2.50
69590;BMP180;56792;50.644;17.984;2024-01-30T00:30:23;101287.60;;;2.48
69590;BMP180;56792;50.644;17.984;2024-01-30T00:32:54;101281.60;;;2.44
69590;BMP180;56792;50.644;17.984;2024-01-30T00:35:25;101272.20;;;2.40
69590;BMP180;56792;50.644;17.984;2024-01-30T00:37:56;101276.20;;;2.40
69590;BMP180;56792;50.644;17.984;2024-01-30T00:40:28;101276.60;;;2.36
69590;BMP180;56792;50.644;17.984;2024-01-30T00:42:59;101278.40;;;2.40
69590;BMP180;56792;50.644;17.984;2024-01-30T00:45:30;101278.00;;;2.40
69590;BMP180;56792;50.644;17.984;2024-01-30T00:48:01;101281.60;;;2.40
69590;BMP180;56792;50.644;17.984;2024-01-30T00:50:32;101283.80;;;2.40
69590;BMP180;56792;50.644;17.984;2024-01-30T00:53:03;101283.80;;;2.40
69590;BMP180;56792;50.644;17.984;2024-01-30T00:55:34;101278.20;;;2.40
69590;BMP180;56792;50.644;17.984;2024-01-30T00:58:06;101280.80;;;2.40
69590;BMP180;56792;50.644;17.984;2024-01-30T01:00:38;101286.60;;;2.40
69590;BMP180;56792;50.644;17.984;2024-01-30T01:03:09;101281.60;;;2.40
69590;BMP180;56792;50.644;17.984;2024-01-30T01:05:40;101287.60;;;2.40
69590;BMP180;56792;50.644;17.984;2024-01-30T01:08:11;101282.60;;;2.40
69590;BMP180;56792;50.644;17.984;2024-01-30T01:10:44;101281.60;;;2.40
69590;BMP180;56792;50.644;17.984;2024-01-30T01:13:15;101285.20;;;2.40
69590;BMP180;56792;50.644;17.984;2024-01-30T01:15:47;101278.80;;;2.38
69590;BMP180;56792;50.644;17.984;2024-01-30T01:18:18;101276.40;;;2.30
69590;BMP180;56792;50.644;17.984;2024-01-30T01:20:49;101275.60;;;2.30
69590;BMP180;56792;50.644;17.984;2024-01-30T01:23:20;101270.80;;;2.32
69590;BMP180;56792;50.644;17.984;2024-01-30T01:25:51;101268.80;;;2.40
69590;BMP180;56792;50.644;17.984;2024-01-30T01:28:22;101269.20;;;2.30
69590;BMP180;56792;50.644;17.984;2024-01-30T01:30:53;101268.40;;;2.30
69590;BMP180;56792;50.644;17.984;2024-01-30T01:33:28;101265.00;;;2.30
69590;BMP180;56792;50.644;17.984;2024-01-30T01:36:00;101260.00;;;2.30
69590;BMP180;56792;50.644;17.984;2024-01-30T01:38:32;101261.40;;;2.30
69590;BMP180;56792;50.644;17.984;2024-01-30T01:41:03;101259.80;;;2.30
69590;BMP180;56792;50.644;17.984;2024-01-30T01:43:34;101256.00;;;2.30
69590;BMP180;56792;50.644;17.984;2024-01-30T01:46:05;101258.00;;;2.30
69590;BMP180;56792;50.644;17.984;2024-01-30T01:48:37;101259.20;;;2.20
69590;BMP180;56792;50.644;17.984;2024-01-30T01:51:10;101258.80;;;2.20
69590;BMP180;56792;50.644;17.984;2024-01-30T01:53:41;101254.80;;;2.30
69590;BMP180;56792;50.644;17.984;2024-01-30T01:56:13;101251.20;;;2.30
69590;BMP180;56792;50.644;17.984;2024-01-30T01:58:45;101255.20;;;2.32
69590;BMP180;56792;50.644;17.984;2024-01-30T02:01:17;101250.40;;;2.40
69590;BMP180;56792;50.644;17.984;2024-01-30T02:03:50;101253.00;;;2.40
69590;BMP180;56792;50.644;17.984;2024-01-30T02:06:21;101256.40;;;2.40
69590;BMP180;56792;50.644;17.984;2024-01-30T02:08:53;101253.40;;;2.30
69590;BMP180;56792;50.644;17.984;2024-01-30T02:11:25;101254.20;;;2.30
69590;BMP180;56792;50.644;17.984;2024-01-30T02:13:56;101247.60;;;2.30
69590;BMP180;56792;50.644;17.984;2024-01-30T02:16:27;101249.40;;;2.30
69590;BMP180;56792;50.644;17.984;2024-01-30T02:18:59;101251.60;;;2.34
69590;BMP180;56792;50.644;17.984;2024-01-30T02:21:31;101254.20;;;2.30
69590;BMP180;56792;50.644;17.984;2024-01-30T02:24:04;101257.20;;;2.30
69590;BMP180;56792;50.644;17.984;2024-01-30T02:26:35;101254.80;;;2.30
69590;BMP180;56792;50.644;17.984;2024-01-30T02:29:06;101256.60;;;2.20
69590;BMP180;56792;50.644;17.984;2024-01-30T02:31:37;101253.60;;;2.20
69590;BMP180;56792;50.644;17.984;2024-01-30T02:34:08;101251.20;;;2.20
69590;BMP180;56792;50.644;17.984;2024-01-30T02:36:41;101249.60;;;2.20
69590;BMP180;56792;50.644;17.984;2024-01-30T02:39:13;101246.00;;;2.20
69590;BMP180;56792;50.644;17.984;2024-01-30T02:41:44;101244.20;;;2.20
69590;BMP180;56792;50.644;17.984;2024-01-30T02:44:16;101248.40;;;2.16
69590;BMP180;56792;50.644;17.984;2024-01-30T02:46:47;101246.40;;;2.10
69590;BMP180;56792;50.644;17.984;2024-01-30T02:49:18;101241.20;;;2.10
69590;BMP180;56792;50.644;17.984;2024-01-30T02:51:49;101240.40;;;2.10
69590;BMP180;56792;50.644;17.984;2024-01-30T02:54:20;101239.20;;;2.20
69590;BMP180;56792;50.644;17.984;2024-01-30T02:56:51;101236.00;;;2.20
69590;BMP180;56792;50.644;17.984;2024-01-30T02:59:23;101239.00;;;2.20
69590;BMP180;56792;50.644;17.984;2024-01-30T03:01:54;101237.20;;;2.10
69590;BMP180;56792;50.644;17.984;2024-01-30T03:04:25;101237.40;;;2.18
69590;BMP180;56792;50.644;17.984;2024-01-30T03:06:56;101232.60;;;2.20
69590;BMP180;56792;50.644;17.984;2024-01-30T03:09:27;101230.80;;;2.20
69590;BMP180;56792;50.644;17.984;2024-01-30T03:11:58;101231.20;;;2.24
69590;BMP180;56792;50.644;17.984;2024-01-30T03:14:30;101232.00;;;2.18
69590;BMP180;56792;50.644;17.984;2024-01-30T03:17:01;101237.00;;;2.20
69590;BMP180;56792;50.644;17.984;2024-01-30T03:19:32;101234.40;;;2.10
69590;BMP180;56792;50.644;17.984;2024-01-30T03:22:04;101236.80;;;2.18
69590;BMP180;56792;50.644;17.984;2024-01-30T03:24:35;101237.60;;;2.12
69590;BMP180;56792;50.644;17.984;2024-01-30T03:27:06;101232.00;;;2.20
69590;BMP180;56792;50.644;17.984;2024-01-30T03:29:37;101233.40;;;2.18
69590;BMP180;56792;50.644;17.984;2024-01-30T03:32:09;101234.20;;;2.10
69590;BMP180;56792;50.644;17.984;2024-01-30T03:34:40;101232.20;;;2.10
69590;BMP180;56792;50.644;17.984;2024-01-30T03:37:11;101234.40;;;2.08
69590;BMP180;56792;50.644;17.984;2024-01-30T03:39:42;101231.80;;;2.10
69590;BMP180;56792;50.644;17.984;2024-01-30T03:42:13;101229.60;;;2.10
69590;BMP180;56792;50.644;17.984;2024-01-30T03:44:45;101231.20;;;2.10
69590;BMP180;56792;50.644;17.984;2024-01-30T03:47:16;101226.60;;;2.10
69590;BMP180;56792;50.644;17.984;2024-01-30T03:49:47;101227.20;;;2.10
69590;BMP180;56792;50.644;17.984;2024-01-30T03:52:18;101226.40;;;2.10
69590;BMP180;56792;50.644;17.984;2024-01-30T03:54:49;101223.00;;;2.10
69590;BMP180;56792;50.644;17.984;2024-01-30T03:57:21;101222.20;;;2.10
69590;BMP180;56792;50.644;17.984;2024-01-30T03:59:52;101223.00;;;2.16
69590;BMP180;56792;50.644;17.984;2024-01-30T04:02:23;101223.00;;;2.10
69590;BMP180;56792;50.644;17.984;2024-01-30T04:04:54;101226.00;;;2.10
69590;BMP180;56792;50.644;17.984;2024-01-30T04:07:26;101227.80;;;2.10
69590;BMP180;56792;50.644;17.984;2024-01-30T04:09:57;101223.40;;;2.20
69590;BMP180;56792;50.644;17.984;2024-01-30T04:12:28;101223.80;;;2.20
69590;BMP180;56792;50.644;17.984;2024-01-30T04:14:59;101223.80;;;2.20
69590;BMP180;56792;50.644;17.984;2024-01-30T04:17:30;101222.80;;;2.20
69590;BMP180;56792;50.644;17.984;2024-01-30T04:20:02;101225.80;;;2.20
69590;BMP180;56792;50.644;17.984;2024-01-30T04:22:34;101226.00;;;2.20
69590;BMP180;56792;50.644;17.984;2024-01-30T04:25:06;101220.60;;;2.20
69590;BMP180;56792;50.644;17.984;2024-01-30T04:27:37;101215.40;;;2.30
69590;BMP180;56792;50.644;17.984;2024-01-30T04:30:11;101214.80;;;2.20
69590;BMP180;56792;50.644;17.984;2024-01-30T04:32:42;101218.20;;;2.20
69590;BMP180;56792;50.644;17.984;2024-01-30T04:35:13;101218.40;;;2.30
69590;BMP180;56792;50.644;17.984;2024-01-30T04:37:44;101218.20;;;2.30
69590;BMP180;56792;50.644;17.984;2024-01-30T04:40:16;101217.60;;;2.30
69590;BMP180;56792;50.644;17.984;2024-01-30T04:42:47;101221.40;;;2.20
69590;BMP180;56792;50.644;17.984;2024-01-30T04:45:18;101218.40;;;2.20
69590;BMP180;56792;50.644;17.984;2024-01-30T04:47:49;101218.00;;;2.22
69590;BMP180;56792;50.644;17.984;2024-01-30T04:50:20;101225.60;;;2.20
69590;BMP180;56792;50.644;17.984;2024-01-30T04:52:51;101227.00;;;2.20
69590;BMP180;56792;50.644;17.984;2024-01-30T04:55:22;101230.00;;;2.20
69590;BMP180;56792;50.644;17.984;2024-01-30T04:57:53;101230.00;;;2.24
69590;BMP180;56792;50.644;17.984;2024-01-30T05:00:24;101226.80;;;2.20
69590;BMP180;56792;50.644;17.984;2024-01-30T05:02:56;101229.60;;;2.20
69590;BMP180;56792;50.644;17.984;2024-01-30T05:05:27;101228.00;;;2.20
69590;BMP180;56792;50.644;17.984;2024-01-30T05:07:58;101227.00;;;2.22
69590;BMP180;56792;50.644;17.984;2024-01-30T05:10:29;101229.60;;;2.20
69590;BMP180;56792;50.644;17.984;2024-01-30T05:13:00;101227.60;;;2.20
69590;BMP180;56792;50.644;17.984;2024-01-30T05:15:31;101230.20;;;2.20
69590;BMP180;56792;50.644;17.984;2024-01-30T05:18:02;101237.60;;;2.20
69590;BMP180;56792;50.644;17.984;2024-01-30T05:20:33;101236.80;;;2.20
69590;BMP180;56792;50.644;17.984;2024-01-30T05:23:05;101240.60;;;2.20
69590;BMP180;56792;50.644;17.984;2024-01-30T05:25:36;101245.00;;;2.10
69590;BMP180;56792;50.644;17.984;2024-01-30T05:28:08;101248.60;;;2.20
69590;BMP180;56792;50.644;17.984;2024-01-30T05:30:39;101251.40;;;2.14
69590;BMP180;56792;50.644;17.984;2024-01-30T05:33:10;101249.40;;;2.12
69590;BMP180;56792;50.644;17.984;2024-01-30T05:35:43;101254.40;;;2.10
69590;BMP180;56792;50.644;17.984;2024-01-30T05:38:15;101254.40;;;2.14
69590;BMP180;56792;50.644;17.984;2024-01-30T05:40:46;101253.40;;;2.12
69590;BMP180;56792;50.644;17.984;2024-01-30T05:43:17;101252.00;;;2.12
69590;BMP180;56792;50.644;17.984;2024-01-30T05:45:48;101250.60;;;2.10
69590;BMP180;56792;50.644;17.984;2024-01-30T05:48:20;101246.80;;;2.10
69590;BMP180;56792;50.644;17.984;2024-01-30T05:50:51;101244.80;;;2.10
69590;BMP180;56792;50.644;17.984;2024-01-30T05:53:22;101244.60;;;2.10
69590;BMP180;56792;50.644;17.984;2024-01-30T05:55:53;101244.60;;;2.10
69590;BMP180;56792;50.644;17.984;2024-01-30T05:58:24;101245.60;;;2.10
69590;BMP180;56792;50.644;17.984;2024-01-30T06:00:55;101242.00;;;2.10
69590;BMP180;56792;50.644;17.984;2024-01-30T06:03:26;101237.60;;;2.10
69590;BMP180;56792;50.644;17.984;2024-01-30T06:05:57;101240.60;;;2.10
69590;BMP180;56792;50.644;17.984;2024-01-30T06:08:29;101247.00;;;2.12
69590;BMP180;56792;50.644;17.984;2024-01-30T06:11:00;101246.60;;;2.10
69590;BMP180;56792;50.644;17.984;2024-01-30T06:13:31;101242.40;;;2.10
69590;BMP180;56792;50.644;17.984;2024-01-30T06:16:04;101245.00;;;2.10
69590;BMP180;56792;50.644;17.984;2024-01-30T06:18:35;101241.00;;;2.02
69590;BMP180;56792;50.644;17.984;2024-01-30T06:21:07;101248.20;;;2.06
69590;BMP180;56792;50.644;17.984;2024-01-30T06:23:38;101247.60;;;2.00
69590;BMP180;56792;50.644;17.984;2024-01-30T06:26:09;101250.20;;;2.10
69590;BMP180;56792;50.644;17.984;2024-01-30T06:28:40;101243.20;;;2.10
69590;BMP180;56792;50.644;17.984;2024-01-30T06:31:11;101245.80;;;2.10
69590;BMP180;56792;50.644;17.984;2024-01-30T06:33:42;101251.00;;;2.10
69590;BMP180;56792;50.644;17.984;2024-01-30T06:36:13;101249.20;;;2.10
69590;BMP180;56792;50.644;17.984;2024-01-30T06:38:45;101248.60;;;2.10
69590;BMP180;56792;50.644;17.984;2024-01-30T06:41:16;101250.20;;;2.10
69590;BMP180;56792;50.644;17.984;2024-01-30T06:43:47;101254.40;;;2.10
69590;BMP180;56792;50.644;17.984;2024-01-30T06:46:18;101254.00;;;2.10
69590;BMP180;56792;50.644;17.984;2024-01-30T06:48:49;101258.80;;;2.10
69590;BMP180;56792;50.644;17.984;2024-01-30T06:51:20;101256.60;;;2.10
69590;BMP180;56792;50.644;17.984;2024-01-30T06:53:51;101258.20;;;2.10
69590;BMP180;56792;50.644;17.984;2024-01-30T06:56:22;101260.20;;;2.10
69590;BMP180;56792;50.644;17.984;2024-01-30T06:58:54;101249.00;;;2.10
69590;BMP180;56792;50.644;17.984;2024-01-30T07:01:30;101255.40;;;2.10
69590;BMP180;56792;50.644;17.984;2024-01-30T07:04:02;101252.20;;;2.10
69590;BMP180;56792;50.644;17.984;2024-01-30T07:06:33;101251.00;;;2.10
69590;BMP180;56792;50.644;17.984;2024-01-30T07:09:04;101254.00;;;2.10
69590;BMP180;56792;50.644;17.984;2024-01-30T07:11:36;101252.00;;;2.20
69590;BMP180;56792;50.644;17.984;2024-01-30T07:14:07;101257.60;;;2.20
69590;BMP180;56792;50.644;17.984;2024-01-30T07:16:38;101262.40;;;2.20
69590;BMP180;56792;50.644;17.984;2024-01-30T07:19:09;101257.60;;;2.20
69590;BMP180;56792;50.644;17.984;2024-01-30T07:21:40;101249.40;;;2.20
69590;BMP180;56792;50.644;17.984;2024-01-30T07:24:11;101252.20;;;2.30
69590;BMP180;56792;50.644;17.984;2024-01-30T07:26:42;101253.60;;;2.38
69590;BMP180;56792;50.644;17.984;2024-01-30T07:29:13;101253.40;;;2.40
69590;BMP180;56792;50.644;17.984;2024-01-30T07:31:45;101260.80;;;2.40
69590;BMP180;56792;50.644;17.984;2024-01-30T07:34:16;101251.20;;;2.46
69590;BMP180;56792;50.644;17.984;2024-01-30T07:36:47;101252.40;;;2.50
69590;BMP180;56792;50.644;17.984;2024-01-30T07:39:18;101250.20;;;2.60
69590;BMP180;56792;50.644;17.984;2024-01-30T07:41:49;101253.80;;;2.60
69590;BMP180;56792;50.644;17.984;2024-01-30T07:44:20;101248.00;;;2.70
69590;BMP180;56792;50.644;17.984;2024-01-30T07:46:51;101252.80;;;2.80
69590;BMP180;56792;50.644;17.984;2024-01-30T07:49:22;101257.80;;;2.80
69590;BMP180;56792;50.644;17.984;2024-01-30T07:51:54;101261.00;;;2.82
69590;BMP180;56792;50.644;17.984;2024-01-30T07:54:25;101260.00;;;2.90
69590;BMP180;56792;50.644;17.984;2024-01-30T07:56:56;101256.00;;;3.00
69590;BMP180;56792;50.644;17.984;2024-01-30T07:59:27;101258.20;;;3.00
69590;BMP180;56792;50.644;17.984;2024-01-30T08:01:58;101258.60;;;3.10
69590;BMP180;56792;50.644;17.984;2024-01-30T08:04:29;101254.20;;;3.10
69590;BMP180;56792;50.644;17.984;2024-01-30T08:07:00;101255.80;;;3.20
69590;BMP180;56792;50.644;17.984;2024-01-30T08:09:31;101259.20;;;3.30
69590;BMP180;56792;50.644;17.984;2024-01-30T08:12:02;101255.60;;;3.34
69590;BMP180;56792;50.644;17.984;2024-01-30T08:14:34;101257.60;;;3.40
69590;BMP180;56792;50.644;17.984;2024-01-30T08:17:05;101251.40;;;3.40
69590;BMP180;56792;50.644;17.984;2024-01-30T08:19:37;101253.80;;;3.48
69590;BMP180;56792;50.644;17.984;2024-01-30T08:22:08;101259.80;;;3.62
69590;BMP180;56792;50.644;17.984;2024-01-30T08:24:40;101259.00;;;3.74
69590;BMP180;56792;50.644;17.984;2024-01-30T08:27:11;101257.00;;;3.80
69590;BMP180;56792;50.644;17.984;2024-01-30T08:29:42;101258.60;;;3.90
69590;BMP180;56792;50.644;17.984;2024-01-30T08:32:13;101251.20;;;3.96
69590;BMP180;56792;50.644;17.984;2024-01-30T08:34:45;101253.40;;;4.00
69590;BMP180;56792;50.644;17.984;2024-01-30T08:37:16;101252.20;;;4.10
69590;BMP180;56792;50.644;17.984;2024-01-30T08:39:48;101248.20;;;4.18
69590;BMP180;56792;50.644;17.984;2024-01-30T08:42:19;101251.00;;;4.30
69590;BMP180;56792;50.644;17.984;2024-01-30T08:44:52;101247.00;;;4.30
69590;BMP180;56792;50.644;17.984;2024-01-30T08:47:24;101248.20;;;4.40
69590;BMP180;56792;50.644;17.984;2024-01-30T08:49:55;101252.20;;;4.42
69590;BMP180;56792;50.644;17.984;2024-01-30T08:52:26;101249.20;;;4.50
69590;BMP180;56792;50.644;17.984;2024-01-30T08:54:57;101246.60;;;4.60
69590;BMP180;56792;50.644;17.984;2024-01-30T08:57:28;101243.40;;;4.68
69590;BMP180;56792;50.644;17.984;2024-01-30T09:00:00;101245.40;;;4.70
69590;BMP180;56792;50.644;17.984;2024-01-30T09:02:36;101249.60;;;4.70
69590;BMP180;56792;50.644;17.984;2024-01-30T09:05:08;101243.80;;;4.74
69590;BMP180;56792;50.644;17.984;2024-01-30T09:07:39;101242.40;;;4.80
69590;BMP180;56792;50.644;17.984;2024-01-30T09:10:11;101244.40;;;4.80
69590;BMP180;56792;50.644;17.984;2024-01-30T09:12:42;101238.00;;;4.80
69590;BMP180;56792;50.644;17.984;2024-01-30T09:15:14;101244.60;;;4.94
69590;BMP180;56792;50.644;17.984;2024-01-30T09:17:45;101243.00;;;5.00
69590;BMP180;56792;50.644;17.984;2024-01-30T09:20:16;101234.60;;;5.16
69590;BMP180;56792;50.644;17.984;2024-01-30T09:22:49;101243.00;;;5.30
69590;BMP180;56792;50.644;17.984;2024-01-30T09:25:20;101243.60;;;5.40
69590;BMP180;56792;50.644;17.984;2024-01-30T09:27:51;101245.80;;;5.50
69590;BMP180;56792;50.644;17.984;2024-01-30T09:30:22;101250.60;;;5.60
69590;BMP180;56792;50.644;17.984;2024-01-30T09:32:54;101247.20;;;5.70
69590;BMP180;56792;50.644;17.984;2024-01-30T09:35:25;101243.00;;;5.80
69590;BMP180;56792;50.644;17.984;2024-01-30T09:37:56;101239.80;;;5.86
69590;BMP180;56792;50.644;17.984;2024-01-30T09:40:28;101241.60;;;6.00
69590;BMP180;56792;50.644;17.984;2024-01-30T09:43:00;101244.40;;;6.08
69590;BMP180;56792;50.644;17.984;2024-01-30T09:45:33;101240.40;;;6.12
69590;BMP180;56792;50.644;17.984;2024-01-30T09:48:07;101239.80;;;6.26
69590;BMP180;56792;50.644;17.984;2024-01-30T09:50:38;101241.80;;;6.30
69590;BMP180;56792;50.644;17.984;2024-01-30T09:53:10;101239.80;;;6.40
69590;BMP180;56792;50.644;17.984;2024-01-30T09:55:47;101240.40;;;6.52
69590;BMP180;56792;50.644;17.984;2024-01-30T09:58:18;101238.00;;;6.60
69590;BMP180;56792;50.644;17.984;2024-01-30T10:00:49;101238.00;;;6.70
69590;BMP180;56792;50.644;17.984;2024-01-30T10:03:20;101240.40;;;6.78
69590;BMP180;56792;50.644;17.984;2024-01-30T10:05:54;101240.80;;;6.82
69590;BMP180;56792;50.644;17.984;2024-01-30T10:08:27;101241.00;;;6.90
69590;BMP180;56792;50.644;17.984;2024-01-30T10:10:59;101234.40;;;7.06
69590;BMP180;56792;50.644;17.984;2024-01-30T10:13:31;101238.00;;;7.14
69590;BMP180;56792;50.644;17.984;2024-01-30T10:16:02;101237.60;;;7.22
69590;BMP180;56792;50.644;17.984;2024-01-30T10:18:35;101238.40;;;7.30
69590;BMP180;56792;50.644;17.984;2024-01-30T10:21:07;101227.40;;;7.46
69590;BMP180;56792;50.644;17.984;2024-01-30T10:23:38;101220.60;;;7.50
69590;BMP180;56792;50.644;17.984;2024-01-30T10:26:10;101220.00;;;7.50
69590;BMP180;56792;50.644;17.984;2024-01-30T10:28:41;101218.40;;;7.60
69590;BMP180;56792;50.644;17.984;2024-01-30T10:31:15;101205.60;;;7.68
69590;BMP180;56792;50.644;17.984;2024-01-30T10:33:47;101208.40;;;7.62
69590;BMP180;56792;50.644;17.984;2024-01-30T10:36:19;101205.80;;;7.60
69590;BMP180;56792;50.644;17.984;2024-01-30T10:38:54;101198.40;;;7.70
69590;BMP180;56792;50.644;17.984;2024-01-30T10:41:33;101198.60;;;7.78
69590;BMP180;56792;50.644;17.984;2024-01-30T10:44:12;101192.20;;;7.90
69590;BMP180;56792;50.644;17.984;2024-01-30T10:46:50;101184.60;;;8.10
69590;BMP180;56792;50.644;17.984;2024-01-30T10:49:22;101184.40;;;8.10
69590;BMP180;56792;50.644;17.984;2024-01-30T10:51:56;101185.40;;;8.20
69590;BMP180;56792;50.644;17.984;2024-01-30T10:54:28;101188.40;;;8.30
69590;BMP180;56792;50.644;17.984;2024-01-30T10:57:02;101179.20;;;8.40
69590;BMP180;56792;50.644;17.984;2024-01-30T10:59:34;101180.80;;;8.48
69590;BMP180;56792;50.644;17.984;2024-01-30T11:02:06;101181.00;;;8.50
69590;BMP180;56792;50.644;17.984;2024-01-30T11:04:42;101176.60;;;8.60
69590;BMP180;56792;50.644;17.984;2024-01-30T11:07:24;101175.00;;;8.60
69590;BMP180;56792;50.644;17.984;2024-01-30T11:10:02;101172.80;;;8.70
69590;BMP180;56792;50.644;17.984;2024-01-30T11:12:38;101167.20;;;8.88
69590;BMP180;56792;50.644;17.984;2024-01-30T11:15:13;101165.20;;;8.80
69590;BMP180;56792;50.644;17.984;2024-01-30T11:17:49;101167.40;;;8.94
69590;BMP180;56792;50.644;17.984;2024-01-30T11:20:25;101169.40;;;9.00
69590;BMP180;56792;50.644;17.984;2024-01-30T11:22:57;101170.20;;;9.20
69590;BMP180;56792;50.644;17.984;2024-01-30T11:25:29;101169.60;;;9.00
69590;BMP180;56792;50.644;17.984;2024-01-30T11:28:02;101164.80;;;9.04
69590;BMP180;56792;50.644;17.984;2024-01-30T11:30:34;101166.00;;;8.90
69590;BMP180;56792;50.644;17.984;2024-01-30T11:33:08;101163.20;;;9.10
69590;BMP180;56792;50.644;17.984;2024-01-30T11:35:42;101161.60;;;9.30
69590;BMP180;56792;50.644;17.984;2024-01-30T11:38:16;101151.60;;;9.40
69590;BMP180;56792;50.644;17.984;2024-01-30T11:40:49;101149.80;;;9.38
69590;BMP180;56792;50.644;17.984;2024-01-30T11:43:21;101151.40;;;9.00
69590;BMP180;56792;50.644;17.984;2024-01-30T11:45:52;101148.40;;;9.02
69590;BMP180;56792;50.644;17.984;2024-01-30T11:48:23;101141.40;;;9.40
69590;BMP180;56792;50.644;17.984;2024-01-30T11:50:55;101138.20;;;9.30
69590;BMP180;56792;50.644;17.984;2024-01-30T11:53:26;101139.60;;;9.50
69590;BMP180;56792;50.644;17.984;2024-01-30T11:55:57;101137.00;;;9.40
69590;BMP180;56792;50.644;17.984;2024-01-30T11:58:29;101136.00;;;9.40
69590;BMP180;56792;50.644;17.984;2024-01-30T12:01:00;101135.60;;;9.30
69590;BMP180;56792;50.644;17.984;2024-01-30T12:03:31;101137.20;;;9.30
69590;BMP180;56792;50.644;17.984;2024-01-30T12:06:04;101123.60;;;9.50
69590;BMP180;56792;50.644;17.984;2024-01-30T12:08:36;101120.80;;;9.50
69590;BMP180;56792;50.644;17.984;2024-01-30T12:11:09;101123.00;;;9.40
69590;BMP180;56792;50.644;17.984;2024-01-30T12:13:40;101123.60;;;9.32
69590;BMP180;56792;50.644;17.984;2024-01-30T12:16:12;101119.00;;;9.30
69590;BMP180;56792;50.644;17.984;2024-01-30T12:18:43;101120.40;;;9.30
69590;BMP180;56792;50.644;17.984;2024-01-30T12:21:17;101117.80;;;9.20
69590;BMP180;56792;50.644;17.984;2024-01-30T12:23:49;101114.00;;;9.10
69590;BMP180;56792;50.644;17.984;2024-01-30T12:26:20;101112.20;;;9.14
69590;BMP180;56792;50.644;17.984;2024-01-30T12:28:53;101107.80;;;9.14
69590;BMP180;56792;50.644;17.984;2024-01-30T12:31:31;101102.60;;;9.10
69590;BMP180;56792;50.644;17.984;2024-01-30T12:34:03;101101.80;;;9.10
69590;BMP180;56792;50.644;17.984;2024-01-30T12:36:35;101099.20;;;9.00
69590;BMP180;56792;50.644;17.984;2024-01-30T12:39:06;101098.60;;;8.80
69590;BMP180;56792;50.644;17.984;2024-01-30T12:41:37;101095.20;;;8.80
69590;BMP180;56792;50.644;17.984;2024-01-30T12:44:09;101095.20;;;8.70
69590;BMP180;56792;50.644;17.984;2024-01-30T12:46:40;101093.00;;;8.72
69590;BMP180;56792;50.644;17.984;2024-01-30T12:49:11;101094.20;;;8.70
69590;BMP180;56792;50.644;17.984;2024-01-30T12:51:43;101094.00;;;8.62
69590;BMP180;56792;50.644;17.984;2024-01-30T12:54:15;101096.60;;;8.64
69590;BMP180;56792;50.644;17.984;2024-01-30T12:56:46;101090.80;;;8.60
69590;BMP180;56792;50.644;17.984;2024-01-30T12:59:18;101093.80;;;8.60
69590;BMP180;56792;50.644;17.984;2024-01-30T13:01:49;101088.60;;;8.50
69590;BMP180;56792;50.644;17.984;2024-01-30T13:04:20;101089.60;;;8.40
69590;BMP180;56792;50.644;17.984;2024-01-30T13:06:51;101087.40;;;8.40
69590;BMP180;56792;50.644;17.984;2024-01-30T13:09:23;101083.20;;;8.40
69590;BMP180;56792;50.644;17.984;2024-01-30T13:11:54;101084.40;;;8.30
69590;BMP180;56792;50.644;17.984;2024-01-30T13:14:25;101083.00;;;8.30
69590;BMP180;56792;50.644;17.984;2024-01-30T13:16:57;101078.20;;;8.20
69590;BMP180;56792;50.644;17.984;2024-01-30T13:19:28;101076.40;;;8.20
69590;BMP180;56792;50.644;17.984;2024-01-30T13:21:59;101075.40;;;8.10
69590;BMP180;56792;50.644;17.984;2024-01-30T13:24:30;101073.80;;;8.00
69590;BMP180;56792;50.644;17.984;2024-01-30T13:27:01;101071.80;;;7.92
69590;BMP180;56792;50.644;17.984;2024-01-30T13:29:35;101067.20;;;7.98
69590;BMP180;56792;50.644;17.984;2024-01-30T13:32:07;101067.00;;;8.00
69590;BMP180;56792;50.644;17.984;2024-01-30T13:34:38;101064.80;;;8.00
69590;BMP180;56792;50.644;17.984;2024-01-30T13:37:10;101064.00;;;7.96
69590;BMP180;56792;50.644;17.984;2024-01-30T13:39:41;101064.20;;;7.90
69590;BMP180;56792;50.644;17.984;2024-01-30T13:42:12;101069.80;;;7.80
69590;BMP180;56792;50.644;17.984;2024-01-30T13:44:43;101072.40;;;7.80
69590;BMP180;56792;50.644;17.984;2024-01-30T13:47:15;101074.20;;;7.80
69590;BMP180;56792;50.644;17.984;2024-01-30T13:49:46;101066.60;;;7.80
69590;BMP180;56792;50.644;17.984;2024-01-30T13:52:17;101068.20;;;7.74
69590;BMP180;56792;50.644;17.984;2024-01-30T13:54:48;101075.80;;;7.70
69590;BMP180;56792;50.644;17.984;2024-01-30T13:57:19;101070.60;;;7.70
69590;BMP180;56792;50.644;17.984;2024-01-30T13:59:50;101069.80;;;7.60
69590;BMP180;56792;50.644;17.984;2024-01-30T14:02:21;101066.60;;;7.60
69590;BMP180;56792;50.644;17.984;2024-01-30T14:04:52;101063.40;;;7.50
69590;BMP180;56792;50.644;17.984;2024-01-30T14:07:23;101067.80;;;7.50
69590;BMP180;56792;50.644;17.984;2024-01-30T14:09:54;101062.20;;;7.40
69590;BMP180;56792;50.644;17.984;2024-01-30T14:12:26;101061.80;;;7.40
69590;BMP180;56792;50.644;17.984;2024-01-30T14:14:57;101068.80;;;7.30
69590;BMP180;56792;50.644;17.984;2024-01-30T14:17:28;101065.60;;;7.30
69590;BMP180;56792;50.644;17.984;2024-01-30T14:19:59;101066.40;;;7.20